createdAt,value
2017-09-23T00:00:15.082Z,10.80
2017-09-23T00:02:41.423Z,10.90
2017-09-23T00:05:07.705Z,10.80
2017-09-23T00:07:33.993Z,10.80
2017-09-23T00:10:00.274Z,10.60
2017-09-23T00:12:27.306Z,10.50
2017-09-23T00:14:53.565Z,10.50
2017-09-23T00:17:20.602Z,10.40
2017-09-23T00:19:47.617Z,10.60
2017-09-23T00:22:13.962Z,10.50
2017-09-23T00:24:40.260Z,10.50
2017-09-23T00:27:06.561Z,10.70
2017-09-23T00:29:32.841Z,10.60
2017-09-23T00:31:59.909Z,10.60
2017-09-23T00:34:26.942Z,10.60
2017-09-23T00:36:53.983Z,10.40
2017-09-23T00:39:21.034Z,10.40
2017-09-23T00:41:47.341Z,10.30
2017-09-23T00:44:13.663Z,10.40
2017-09-23T00:46:39.952Z,10.50
2017-09-23T00:49:06.270Z,10.60
2017-09-23T00:51:33.304Z,10.70
2017-09-23T00:54:00.376Z,10.90
2017-09-23T00:56:26.691Z,10.80
2017-09-23T00:58:53.769Z,10.90
2017-09-23T01:01:20.041Z,10.80
2017-09-23T01:03:46.376Z,10.40
2017-09-23T01:06:13.697Z,10.60
2017-09-23T01:08:39.998Z,10.50
2017-09-23T01:11:06.314Z,10.50
2017-09-23T01:13:33.343Z,10.30
2017-09-23T01:15:59.661Z,10.30
2017-09-23T01:18:25.936Z,10.50
2017-09-23T01:20:52.589Z,10.20
2017-09-23T01:23:19.705Z,10.30
2017-09-23T01:25:46.760Z,10.50
2017-09-23T01:28:13.067Z,10.40
2017-09-23T01:30:40.148Z,10.60
2017-09-23T01:33:06.445Z,10.60
2017-09-23T01:35:32.739Z,10.70
2017-09-23T01:37:59.018Z,10.60
2017-09-23T01:40:26.075Z,10.60
2017-09-23T01:42:53.136Z,10.60
2017-09-23T01:45:19.438Z,10.60
2017-09-23T01:47:46.492Z,10.60
2017-09-23T01:50:13.523Z,10.60
2017-09-23T01:52:39.813Z,10.50
2017-09-23T01:55:06.107Z,10.80
2017-09-23T01:57:33.863Z,10.50
2017-09-23T02:00:00.224Z,10.40
2017-09-23T02:02:26.553Z,10.40
2017-09-23T02:04:52.888Z,10.50
2017-09-23T02:07:19.183Z,10.60
2017-09-23T02:09:45.487Z,10.40
2017-09-23T02:12:11.782Z,10.30
2017-09-23T02:14:38.084Z,10.40
2017-09-23T02:17:04.355Z,10.50
2017-09-23T02:19:30.655Z,10.60
2017-09-23T02:21:56.930Z,10.70
2017-09-23T02:24:23.227Z,10.70
2017-09-23T02:26:49.511Z,10.50
2017-09-23T02:29:16.542Z,10.30
2017-09-23T02:31:42.846Z,10.30
2017-09-23T02:34:09.135Z,10.30
2017-09-23T02:36:35.418Z,10.30
2017-09-23T02:39:01.708Z,10.30
2017-09-23T02:41:28.000Z,10.30
2017-09-23T02:43:55.547Z,10.20
2017-09-23T02:46:21.839Z,10.10
2017-09-23T02:48:48.145Z,10.30
2017-09-23T02:51:14.757Z,10.40
2017-09-23T02:53:41.806Z,10.50
2017-09-23T02:56:08.869Z,10.70
2017-09-23T02:58:35.159Z,10.60
2017-09-23T03:01:01.439Z,10.90
2017-09-23T03:03:27.737Z,10.70
2017-09-23T03:05:54.775Z,10.50
2017-09-23T03:08:21.814Z,10.30
2017-09-23T03:10:48.135Z,10.20
2017-09-23T03:13:14.418Z,10.20
2017-09-23T03:15:40.704Z,10.20
2017-09-23T03:18:06.972Z,10.30
2017-09-23T03:20:33.994Z,10.40
2017-09-23T03:23:01.021Z,10.60
2017-09-23T03:25:27.322Z,10.50
2017-09-23T03:27:53.602Z,10.60
2017-09-23T03:30:20.627Z,10.30
2017-09-23T03:32:46.931Z,10.30
2017-09-23T03:35:13.228Z,10.40
2017-09-23T03:37:40.265Z,10.10
2017-09-23T03:40:07.330Z,10.30
2017-09-23T03:42:33.651Z,10.20
2017-09-23T03:44:59.942Z,10.30
2017-09-23T03:47:26.218Z,10.30
2017-09-23T03:49:52.505Z,10.20
2017-09-23T03:52:20.277Z,10.00
2017-09-23T03:54:48.042Z,10.40
2017-09-23T03:57:14.336Z,10.40
2017-09-23T03:59:40.619Z,10.60
2017-09-23T04:02:06.938Z,10.60
2017-09-23T04:04:33.994Z,10.60
2017-09-23T04:07:00.324Z,10.60
2017-09-23T04:09:27.338Z,10.90
2017-09-23T04:11:53.611Z,10.90
2017-09-23T04:14:19.901Z,10.90
2017-09-23T04:16:47.769Z,10.40
2017-09-23T04:19:14.052Z,10.40
2017-09-23T04:21:40.316Z,10.20
2017-09-23T04:24:06.649Z,10.30
2017-09-23T04:26:32.938Z,10.20
2017-09-23T04:28:59.218Z,10.00
2017-09-23T04:31:25.498Z,9.90
2017-09-23T04:33:51.787Z,10.20
2017-09-23T04:36:19.773Z,10.20
2017-09-23T04:38:46.874Z,10.50
2017-09-23T04:41:13.161Z,10.40
2017-09-23T04:43:39.475Z,10.40
2017-09-23T04:46:06.488Z,10.30
2017-09-23T04:48:32.773Z,10.20
2017-09-23T04:50:59.054Z,10.10
2017-09-23T04:53:26.125Z,10.50
2017-09-23T04:55:52.458Z,10.40
2017-09-23T04:58:18.865Z,10.60
2017-09-23T05:00:45.458Z,10.60
2017-09-23T05:03:11.795Z,10.80
2017-09-23T05:05:38.081Z,10.80
2017-09-23T05:08:04.349Z,10.70
2017-09-23T05:10:30.659Z,10.70
2017-09-23T05:12:56.967Z,10.80
2017-09-23T05:15:23.287Z,10.90
2017-09-23T05:17:50.235Z,11.10
2017-09-23T05:20:18.136Z,11.20
2017-09-23T05:22:44.429Z,11.20
2017-09-23T05:25:11.466Z,11.20
2017-09-23T05:27:37.756Z,11.20
2017-09-23T05:30:04.067Z,11.30
2017-09-23T05:32:30.373Z,11.30
2017-09-23T05:34:57.424Z,11.10
2017-09-23T05:37:24.475Z,11.30
2017-09-23T05:39:51.554Z,11.40
2017-09-23T05:42:17.840Z,11.30
2017-09-23T05:44:44.125Z,11.50
2017-09-23T05:47:10.448Z,11.50
2017-09-23T05:49:36.736Z,11.50
2017-09-23T05:52:03.800Z,11.50
2017-09-23T05:54:30.094Z,11.50
2017-09-23T05:56:56.421Z,11.50
2017-09-23T05:59:22.729Z,11.70
2017-09-23T06:01:49.034Z,11.80
2017-09-23T06:04:15.330Z,11.80
2017-09-23T06:06:42.387Z,11.60
2017-09-23T06:09:09.426Z,11.70
2017-09-23T06:11:36.480Z,11.80
2017-09-23T06:14:03.539Z,11.90
2017-09-23T06:16:29.869Z,11.90
2017-09-23T06:18:56.188Z,11.80
2017-09-23T06:21:23.276Z,12.00
2017-09-23T06:23:49.550Z,11.90
2017-09-23T06:26:16.642Z,11.80
2017-09-23T06:28:42.939Z,11.80
2017-09-23T06:31:09.985Z,11.90
2017-09-23T06:33:37.043Z,11.90
2017-09-23T06:36:04.138Z,11.90
2017-09-23T06:38:30.477Z,11.90
2017-09-23T06:40:56.778Z,12.00
2017-09-23T06:43:23.129Z,12.20
2017-09-23T06:45:49.421Z,12.40
2017-09-23T06:48:15.757Z,12.20
2017-09-23T06:50:42.040Z,12.20
2017-09-23T06:53:08.341Z,12.30
2017-09-23T06:55:34.652Z,12.30
2017-09-23T06:58:00.978Z,12.10
2017-09-23T07:00:27.423Z,12.10
2017-09-23T07:02:53.767Z,12.20
2017-09-23T07:05:20.110Z,12.40
2017-09-23T07:07:46.415Z,12.30
2017-09-23T07:10:12.768Z,12.40
2017-09-23T07:12:39.093Z,12.50
2017-09-23T07:15:06.230Z,12.60
2017-09-23T07:17:33.420Z,12.60
2017-09-23T07:19:59.750Z,12.60
2017-09-23T07:22:26.035Z,12.80
2017-09-23T07:24:52.357Z,12.70
2017-09-23T07:27:18.653Z,12.60
2017-09-23T07:29:45.681Z,12.60
2017-09-23T07:34:46.555Z,12.70
2017-09-23T07:37:12.885Z,12.60
2017-09-23T07:39:39.975Z,12.80
2017-09-23T07:42:06.304Z,12.70
2017-09-23T07:44:32.693Z,12.90
2017-09-23T07:46:59.759Z,13.10
2017-09-23T07:49:26.050Z,13.10
2017-09-23T07:51:52.350Z,13.10
2017-09-23T07:54:18.643Z,13.20
2017-09-23T07:56:45.093Z,13.30
2017-09-23T07:59:11.413Z,13.30
2017-09-23T08:01:37.714Z,13.40
2017-09-23T08:04:04.003Z,13.50
2017-09-23T08:06:30.300Z,13.60
2017-09-23T08:08:57.502Z,13.50
2017-09-23T08:11:23.827Z,13.60
2017-09-23T08:13:50.150Z,13.60
2017-09-23T08:16:16.478Z,13.80
2017-09-23T08:18:42.803Z,13.80
2017-09-23T08:21:09.128Z,13.80
2017-09-23T08:23:36.388Z,13.90
2017-09-23T08:26:02.659Z,14.00
2017-09-23T08:28:29.697Z,14.10
2017-09-23T08:30:55.976Z,14.10
2017-09-23T08:33:22.307Z,14.10
2017-09-23T08:35:48.604Z,14.20
2017-09-23T08:38:14.933Z,14.30
2017-09-23T08:40:41.974Z,14.40
2017-09-23T08:43:08.320Z,14.40
2017-09-23T08:45:34.656Z,14.50
2017-09-23T08:48:00.954Z,14.40
2017-09-23T08:50:28.027Z,14.80
2017-09-23T08:52:55.069Z,15.00
2017-09-23T08:55:21.501Z,14.90
2017-09-23T08:57:48.525Z,14.90
2017-09-23T09:00:15.582Z,14.90
2017-09-23T09:02:41.887Z,14.90
2017-09-23T09:05:08.231Z,15.00
2017-09-23T09:07:35.265Z,15.00
2017-09-23T09:10:01.597Z,14.90
2017-09-23T09:12:27.913Z,14.80
2017-09-23T09:14:54.222Z,14.80
2017-09-23T09:17:21.314Z,14.90
2017-09-23T09:19:48.379Z,15.00
2017-09-23T09:22:15.429Z,15.00
2017-09-23T09:24:42.492Z,14.90
2017-09-23T09:27:08.796Z,14.90
2017-09-23T09:29:35.870Z,14.90
2017-09-23T09:32:02.193Z,14.80
2017-09-23T09:34:28.540Z,14.80
2017-09-23T09:36:54.833Z,14.80
2017-09-23T09:39:21.918Z,14.80
2017-09-23T09:41:48.287Z,14.70
2017-09-23T09:44:14.671Z,14.90
2017-09-23T09:46:41.002Z,15.00
2017-09-23T09:49:07.290Z,15.10
2017-09-23T09:51:33.611Z,15.10
2017-09-23T09:54:00.008Z,15.10
2017-09-23T09:56:27.848Z,15.10
2017-09-23T09:58:54.175Z,15.20
2017-09-23T10:01:21.219Z,15.30
2017-09-23T10:03:48.614Z,15.30
2017-09-23T10:06:15.713Z,15.40
2017-09-23T10:08:42.745Z,15.40
2017-09-23T10:11:10.539Z,15.50
2017-09-23T10:13:37.739Z,15.50
2017-09-23T10:16:04.047Z,15.50
2017-09-23T10:18:30.349Z,15.50
2017-09-23T10:20:56.659Z,15.60
2017-09-23T10:23:23.746Z,15.70
2017-09-23T10:25:50.085Z,15.60
2017-09-23T10:28:18.151Z,15.60
2017-09-23T10:30:44.466Z,15.60
2017-09-23T10:33:10.768Z,15.80
2017-09-23T10:35:37.838Z,15.60
2017-09-23T10:38:04.864Z,15.70
2017-09-23T10:40:31.930Z,15.80
2017-09-23T10:42:58.233Z,15.80
2017-09-23T10:45:24.965Z,15.80
2017-09-23T10:47:52.069Z,15.90
2017-09-23T10:50:18.380Z,15.80
2017-09-23T10:52:44.689Z,16.00
2017-09-23T10:55:11.018Z,15.90
2017-09-23T10:57:38.084Z,16.00
2017-09-23T11:00:04.434Z,16.00
2017-09-23T11:02:30.741Z,16.10
2017-09-23T11:04:57.082Z,16.10
2017-09-23T11:07:23.407Z,16.00
2017-09-23T11:09:49.727Z,16.10
2017-09-23T11:12:16.842Z,16.30
2017-09-23T11:14:43.126Z,16.30
2017-09-23T11:17:10.166Z,16.30
2017-09-23T11:19:36.466Z,16.30
2017-09-23T11:22:03.595Z,16.30
2017-09-23T11:24:29.871Z,16.30
2017-09-23T11:26:56.915Z,16.50
2017-09-23T11:29:23.348Z,16.40
2017-09-23T11:31:50.399Z,16.60
2017-09-23T11:34:16.719Z,16.50
2017-09-23T11:36:43.039Z,16.70
2017-09-23T11:39:10.062Z,16.50
2017-09-23T11:41:36.415Z,16.50
2017-09-23T11:44:02.781Z,16.70
2017-09-23T11:46:29.063Z,16.70
2017-09-23T11:48:56.125Z,16.50
2017-09-23T11:51:23.173Z,16.60
2017-09-23T11:53:51.230Z,16.80
2017-09-23T11:56:19.230Z,17.10
2017-09-23T11:58:46.276Z,16.90
2017-09-23T12:01:13.392Z,16.80
2017-09-23T12:03:40.470Z,17.00
2017-09-23T12:06:07.510Z,17.10
2017-09-23T12:08:34.595Z,17.20
2017-09-23T12:11:00.929Z,17.20
2017-09-23T12:13:27.244Z,17.30
2017-09-23T12:15:53.550Z,17.30
2017-09-23T12:18:20.617Z,17.60
2017-09-23T12:20:46.935Z,17.50
2017-09-23T12:23:13.269Z,17.60
2017-09-23T12:25:40.969Z,17.60
2017-09-23T12:28:08.264Z,17.60
2017-09-23T12:30:37.243Z,17.90
2017-09-23T12:33:03.539Z,17.90
2017-09-23T12:35:29.837Z,17.70
2017-09-23T12:37:56.134Z,17.90
2017-09-23T12:40:23.231Z,18.40
2017-09-23T12:42:49.587Z,18.40
2017-09-23T12:45:15.882Z,18.40
2017-09-23T12:47:42.173Z,18.40
2017-09-23T12:50:09.965Z,18.50
2017-09-23T12:52:37.018Z,18.90
2017-09-23T12:55:03.330Z,18.90
2017-09-23T12:57:30.399Z,19.20
2017-09-23T12:59:56.691Z,19.20
2017-09-23T13:02:23.038Z,19.30
2017-09-23T13:04:50.081Z,19.30
2017-09-23T13:07:17.382Z,19.20
2017-09-23T13:09:45.213Z,19.30
2017-09-23T13:12:11.527Z,19.30
2017-09-23T13:14:37.824Z,19.10
2017-09-23T13:17:04.161Z,19.20
2017-09-23T13:19:30.447Z,19.40
2017-09-23T13:21:56.726Z,19.30
2017-09-23T13:24:23.049Z,19.30
2017-09-23T13:26:49.354Z,19.20
2017-09-23T13:29:15.693Z,19.20
2017-09-23T13:31:42.014Z,19.20
2017-09-23T13:34:08.354Z,19.40
2017-09-23T13:36:34.653Z,19.60
2017-09-23T13:39:00.980Z,19.90
2017-09-23T13:41:27.389Z,19.80
2017-09-23T13:43:54.423Z,20.10
2017-09-23T13:46:21.486Z,20.60
2017-09-23T13:48:48.566Z,20.50
2017-09-23T13:51:14.957Z,20.40
2017-09-23T13:53:41.345Z,20.70
2017-09-23T13:56:08.201Z,21.00
2017-09-23T13:58:34.708Z,21.40
2017-09-23T14:01:01.019Z,21.80
2017-09-23T14:03:27.346Z,22.50
2017-09-23T14:05:54.400Z,21.90
2017-09-23T14:08:20.717Z,21.80
2017-09-23T14:10:47.773Z,20.80
2017-09-23T14:13:14.850Z,20.30
2017-09-23T14:15:41.229Z,20.20
2017-09-23T14:18:08.361Z,19.90
2017-09-23T14:20:34.772Z,19.80
2017-09-23T14:23:01.118Z,19.90
2017-09-23T14:25:27.457Z,20.00
2017-09-23T14:27:54.534Z,19.90
2017-09-23T14:30:20.902Z,19.90
2017-09-23T14:32:47.207Z,20.00
2017-09-23T14:35:13.550Z,20.30
2017-09-23T14:37:39.866Z,20.30
2017-09-23T14:40:06.215Z,19.90
2017-09-23T14:42:32.533Z,19.70
2017-09-23T14:44:58.858Z,19.60
2017-09-23T14:47:25.326Z,19.90
2017-09-23T14:49:52.469Z,19.70
2017-09-23T14:52:18.800Z,19.70
2017-09-23T14:54:45.119Z,19.60
2017-09-23T14:57:11.469Z,19.50
2017-09-23T14:59:37.786Z,19.20
2017-09-23T15:02:04.135Z,19.00
2017-09-23T15:04:30.429Z,18.50
2017-09-23T15:06:56.749Z,18.70
2017-09-23T15:09:24.044Z,18.60
2017-09-23T15:11:50.513Z,18.20
2017-09-23T15:14:16.935Z,18.10
2017-09-23T15:16:43.351Z,18.40
2017-09-23T15:19:10.464Z,18.30
2017-09-23T15:21:37.538Z,18.20
2017-09-23T15:24:03.859Z,18.40
2017-09-23T15:26:30.162Z,18.40
2017-09-23T15:28:56.598Z,18.20
2017-09-23T15:31:22.948Z,18.10
2017-09-23T15:33:49.272Z,18.10
2017-09-23T15:36:15.606Z,18.00
2017-09-23T15:38:41.971Z,18.10
2017-09-23T15:41:09.194Z,18.10
2017-09-23T15:43:35.582Z,18.00
2017-09-23T15:46:02.715Z,17.90
2017-09-23T15:48:29.796Z,17.60
2017-09-23T15:50:56.849Z,17.40
2017-09-23T15:53:23.190Z,17.40
2017-09-23T15:55:49.532Z,17.20
2017-09-23T15:58:16.593Z,17.10
2017-09-23T16:00:42.876Z,17.10
2017-09-23T16:03:09.216Z,17.00
2017-09-23T16:05:35.579Z,16.90
2017-09-23T16:08:01.939Z,16.90
2017-09-23T16:10:29.009Z,16.70
2017-09-23T16:12:55.315Z,16.70
2017-09-23T16:15:21.616Z,16.80
2017-09-23T16:17:47.917Z,16.80
2017-09-23T16:22:47.340Z,16.80
2017-09-23T16:25:13.654Z,16.60
2017-09-23T16:27:39.968Z,16.70
2017-09-23T16:30:08.751Z,16.90
2017-09-23T16:32:35.820Z,16.90
2017-09-23T16:35:02.879Z,17.00
2017-09-23T16:37:29.234Z,16.90
2017-09-23T16:39:55.574Z,16.80
2017-09-23T16:42:21.884Z,16.90
2017-09-23T16:44:48.210Z,16.90
2017-09-23T16:47:14.519Z,16.70
2017-09-23T16:49:40.842Z,16.50
2017-09-23T16:52:07.924Z,16.40
2017-09-23T16:54:34.230Z,16.40
2017-09-23T16:57:00.558Z,16.40
2017-09-23T16:59:27.590Z,16.40
2017-09-23T17:01:53.945Z,16.40
2017-09-23T17:04:20.297Z,16.30
2017-09-23T17:06:46.703Z,16.00
2017-09-23T17:09:13.299Z,16.00
2017-09-23T17:11:40.386Z,16.10
2017-09-23T17:14:06.707Z,16.10
2017-09-23T17:16:33.204Z,16.10
2017-09-23T17:19:00.420Z,16.10
2017-09-23T17:21:26.826Z,16.10
2017-09-23T17:23:53.871Z,15.90
2017-09-23T17:26:20.985Z,15.70
2017-09-23T17:28:47.295Z,15.60
2017-09-23T17:31:13.675Z,15.60
2017-09-23T17:33:41.597Z,15.40
2017-09-23T17:36:07.888Z,15.40
2017-09-23T17:38:34.202Z,15.30
2017-09-23T17:41:01.337Z,15.40
2017-09-23T17:43:28.414Z,15.20
2017-09-23T17:45:55.484Z,15.50
2017-09-23T17:48:21.817Z,15.40
2017-09-23T17:50:48.114Z,15.60
2017-09-23T17:53:14.439Z,15.40
2017-09-23T17:55:41.474Z,15.10
2017-09-23T17:58:07.766Z,15.00
2017-09-23T18:00:34.084Z,15.10
2017-09-23T18:03:00.402Z,15.30
2017-09-23T18:05:26.694Z,15.40
2017-09-23T18:07:54.107Z,15.30
2017-09-23T18:10:20.404Z,15.30
2017-09-23T18:12:46.748Z,15.30
2017-09-23T18:15:13.076Z,15.50
2017-09-23T18:17:39.405Z,15.30
2017-09-23T18:20:05.713Z,15.30
2017-09-23T18:22:32.025Z,15.40
2017-09-23T18:24:59.867Z,15.10
2017-09-23T18:27:26.175Z,15.10
2017-09-23T18:29:52.494Z,14.90
2017-09-23T18:32:19.741Z,15.00
2017-09-23T18:34:46.057Z,15.30
2017-09-23T18:37:13.890Z,15.10
2017-09-23T18:39:40.169Z,15.10
2017-09-23T18:42:06.445Z,15.20
2017-09-23T18:44:32.734Z,15.20
2017-09-23T18:46:59.006Z,15.10
2017-09-23T18:49:25.317Z,15.00
2017-09-23T18:51:51.606Z,14.90
2017-09-23T18:54:18.784Z,14.90
2017-09-23T18:56:45.080Z,15.10
2017-09-23T18:59:11.419Z,15.10
2017-09-23T19:01:37.843Z,15.20
2017-09-23T19:04:04.300Z,15.00
2017-09-23T19:06:30.658Z,15.10
2017-09-23T19:08:57.155Z,15.00
2017-09-23T19:11:23.493Z,15.10
2017-09-23T19:13:49.884Z,15.20
2017-09-23T19:16:18.503Z,14.80
2017-09-23T19:18:44.822Z,14.80
2017-09-23T19:21:11.139Z,14.90
2017-09-23T19:23:38.190Z,15.00
2017-09-23T19:26:04.522Z,15.00
2017-09-23T19:28:31.563Z,15.00
2017-09-23T19:30:58.610Z,15.10
2017-09-23T19:33:25.646Z,15.00
2017-09-23T19:35:52.729Z,14.90
2017-09-23T19:38:20.736Z,14.80
2017-09-23T19:40:47.039Z,14.80
2017-09-23T19:43:13.338Z,15.20
2017-09-23T19:45:40.377Z,15.10
2017-09-23T19:48:07.538Z,15.20
2017-09-23T19:50:33.854Z,15.20
2017-09-23T19:53:00.916Z,15.10
2017-09-23T19:55:27.290Z,15.10
2017-09-23T19:57:53.699Z,15.00
2017-09-23T20:00:20.109Z,14.90
2017-09-23T20:02:46.553Z,15.00
2017-09-23T20:05:12.926Z,14.80
2017-09-23T20:07:40.016Z,14.60
2017-09-23T20:10:06.621Z,14.60
2017-09-23T20:12:33.166Z,14.50
2017-09-23T20:14:59.536Z,14.50
2017-09-23T20:17:27.264Z,14.70
2017-09-23T20:19:54.790Z,14.70
2017-09-23T20:22:21.786Z,14.60
2017-09-23T20:24:48.165Z,14.60
2017-09-23T20:27:14.626Z,14.50
2017-09-23T20:29:40.966Z,14.70
2017-09-23T20:32:07.995Z,14.70
2017-09-23T20:34:35.923Z,14.70
2017-09-23T20:37:03.197Z,14.70
2017-09-23T20:39:29.497Z,14.80
2017-09-23T20:41:56.564Z,14.60
2017-09-23T20:44:22.866Z,14.60
2017-09-23T20:46:49.883Z,14.60
2017-09-23T20:49:16.172Z,14.60
2017-09-23T20:51:42.467Z,14.90
2017-09-23T20:54:09.638Z,14.80
2017-09-23T20:56:36.589Z,14.70
2017-09-23T20:59:03.050Z,14.50
2017-09-23T21:01:30.142Z,14.40
2017-09-23T21:03:56.475Z,14.40
2017-09-23T21:06:23.503Z,14.80
2017-09-23T21:08:50.621Z,14.60
2017-09-23T21:11:17.121Z,14.60
2017-09-23T21:13:43.481Z,14.50
2017-09-23T21:16:09.834Z,14.50
2017-09-23T21:18:36.992Z,14.40
2017-09-23T21:21:03.310Z,14.40
2017-09-23T21:23:29.616Z,14.40
2017-09-23T21:25:55.919Z,14.60
2017-09-23T21:28:22.209Z,14.60
2017-09-23T21:30:49.246Z,14.70
2017-09-23T21:33:17.022Z,14.70
2017-09-23T21:35:44.086Z,14.70
2017-09-23T21:38:11.102Z,14.80
2017-09-23T21:40:37.406Z,14.80
2017-09-23T21:43:03.689Z,14.80
2017-09-23T21:45:30.740Z,14.80
2017-09-23T21:47:57.031Z,14.70
2017-09-23T21:50:24.836Z,14.60
2017-09-23T21:52:51.862Z,14.30
2017-09-23T21:55:18.165Z,14.20
2017-09-23T21:57:44.433Z,14.40
2017-09-23T22:00:10.778Z,14.30
2017-09-23T22:02:37.095Z,14.30
2017-09-23T22:05:04.174Z,14.20
2017-09-23T22:07:30.488Z,14.20
2017-09-23T22:09:57.516Z,13.70
2017-09-23T22:12:24.582Z,13.60
2017-09-23T22:14:51.618Z,13.60
2017-09-23T22:17:18.665Z,13.90
2017-09-23T22:19:45.687Z,14.10
2017-09-23T22:22:11.971Z,14.10
2017-09-23T22:24:38.236Z,14.10
2017-09-23T22:27:04.567Z,14.20
2017-09-23T22:29:30.857Z,14.30
2017-09-23T22:31:57.165Z,14.30
2017-09-23T22:34:24.189Z,14.20
2017-09-23T22:36:50.480Z,14.20
2017-09-23T22:39:16.746Z,14.30
2017-09-23T22:41:43.991Z,14.30
2017-09-23T22:44:10.279Z,14.40
2017-09-23T22:46:38.217Z,14.30
2017-09-23T22:49:05.274Z,14.40
2017-09-23T22:51:31.558Z,14.30
2017-09-23T22:53:57.851Z,14.60
2017-09-23T22:56:24.138Z,14.50
2017-09-23T22:58:50.421Z,14.20
2017-09-23T23:01:16.782Z,14.10
2017-09-23T23:03:43.196Z,14.20
2017-09-23T23:06:09.485Z,14.20
2017-09-23T23:08:35.785Z,14.10
2017-09-23T23:11:02.854Z,14.20
2017-09-23T23:13:29.154Z,14.10
2017-09-23T23:15:56.202Z,14.20
2017-09-23T23:18:22.497Z,14.20
2017-09-23T23:20:48.782Z,14.50
2017-09-23T23:23:15.813Z,14.20
2017-09-23T23:25:42.088Z,14.10
2017-09-23T23:28:08.399Z,14.00
2017-09-23T23:30:34.705Z,14.00
2017-09-23T23:33:01.762Z,14.10
2017-09-23T23:35:28.796Z,14.30
2017-09-23T23:37:55.114Z,14.20
2017-09-23T23:40:21.421Z,14.10
2017-09-23T23:42:47.700Z,14.10
2017-09-23T23:45:14.749Z,14.40
2017-09-23T23:47:41.772Z,14.30
2017-09-23T23:50:08.815Z,14.20
2017-09-23T23:52:35.088Z,14.20
2017-09-23T23:55:01.374Z,14.40
2017-09-23T23:57:27.672Z,14.50
2017-09-23T23:59:53.966Z,14.60
